createdAt,value
2023-01-17T00:02:13.914Z,97850.94
2023-01-17T00:05:09.751Z,97868.00
2023-01-17T00:07:55.346Z,97860.47
2023-01-17T00:10:25.151Z,97874.53
2023-01-17T00:12:56.880Z,97859.50
2023-01-17T00:15:25.025Z,97864.41
2023-01-17T00:17:52.687Z,97859.03
2023-01-17T00:20:41.646Z,97895.19
2023-01-17T00:23:33.215Z,97885.72
2023-01-17T00:26:03.340Z,97883.25
2023-01-17T00:28:35.501Z,97907.66
2023-01-17T00:31:03.090Z,97901.59
2023-01-17T00:33:30.105Z,97926.50
2023-01-17T00:35:58.473Z,97911.59
2023-01-17T00:38:27.557Z,97930.25
2023-01-17T00:40:54.434Z,97941.72
2023-01-17T00:43:42.059Z,97951.91
2023-01-17T00:46:27.625Z,97930.91
2023-01-17T00:49:12.613Z,97955.81
2023-01-17T00:51:57.935Z,97949.56
2023-01-17T00:54:43.131Z,97944.66
2023-01-17T00:57:28.631Z,97968.91
2023-01-17T01:00:14.001Z,97979.19
2023-01-17T01:02:59.352Z,97949.88
2023-01-17T01:05:44.746Z,97960.19
2023-01-17T01:08:41.059Z,97987.88
2023-01-17T01:11:28.538Z,97994.13
2023-01-17T01:14:14.813Z,97979.19
2023-01-17T01:17:00.325Z,97999.97
2023-01-17T01:19:45.646Z,97995.06
2023-01-17T01:22:31.033Z,98002.56
2023-01-17T01:25:16.574Z,97986.50
2023-01-17T01:28:02.108Z,97998.59
2023-01-17T01:30:47.845Z,98004.47
2023-01-17T01:33:21.503Z,98031.38
2023-01-17T01:35:54.095Z,98033.66
2023-01-17T01:38:25.132Z,98013.84
2023-01-17T01:40:55.009Z,98068.53
2023-01-17T01:43:44.939Z,98045.59
2023-01-17T01:46:16.849Z,98056.88
2023-01-17T01:48:55.777Z,98070.81
2023-01-17T01:51:31.843Z,98045.38
2023-01-17T01:54:06.259Z,98076.22
2023-01-17T01:56:33.732Z,98085.56
2023-01-17T01:59:04.286Z,98078.81
2023-01-17T02:01:31.998Z,98091.13
2023-01-17T02:03:59.058Z,98079.47
2023-01-17T02:06:33.770Z,98077.47
2023-01-17T02:09:04.825Z,98068.44
2023-01-17T02:11:33.657Z,98084.34
2023-01-17T02:14:03.365Z,98114.34
2023-01-17T02:16:33.251Z,98114.50
2023-01-17T02:19:25.558Z,98112.19
2023-01-17T02:22:25.372Z,98127.41
2023-01-17T02:25:04.202Z,98132.63
2023-01-17T02:27:45.900Z,98135.41
2023-01-17T02:30:32.302Z,98133.75
2023-01-17T02:33:08.362Z,98133.06
2023-01-17T02:35:44.188Z,98107.31
2023-01-17T02:38:20.697Z,98111.50
2023-01-17T02:40:57.907Z,98115.06
2023-01-17T02:43:26.020Z,98121.34
2023-01-17T02:45:52.715Z,98107.53
2023-01-17T02:48:24.597Z,98100.00
2023-01-17T02:51:09.501Z,98116.75
2023-01-17T02:53:53.042Z,98119.53
2023-01-17T02:57:01.465Z,98126.88
2023-01-17T02:59:47.229Z,98158.91
2023-01-17T03:02:43.215Z,98157.84
2023-01-17T03:05:15.317Z,98182.31
2023-01-17T03:07:44.475Z,98197.19
2023-01-17T03:10:12.875Z,98197.00
2023-01-17T03:12:40.657Z,98211.88
2023-01-17T03:15:17.840Z,98197.13
2023-01-17T03:17:49.628Z,98197.31
2023-01-17T03:20:16.780Z,98160.16
2023-01-17T03:22:47.959Z,98210.03
2023-01-17T03:25:14.631Z,98188.38
2023-01-17T03:27:41.275Z,98213.63
2023-01-17T03:30:09.071Z,98185.38
2023-01-17T03:32:35.690Z,98203.47
2023-01-17T03:35:02.438Z,98194.94
2023-01-17T03:37:29.252Z,98215.44
2023-01-17T03:39:55.952Z,98221.13
2023-01-17T03:42:22.780Z,98221.75
2023-01-17T03:44:49.511Z,98236.84
2023-01-17T03:47:16.253Z,98244.19
2023-01-17T03:49:43.466Z,98247.97
2023-01-17T03:52:10.312Z,98232.56
2023-01-17T03:54:37.110Z,98229.25
2023-01-17T03:57:03.943Z,98224.09
2023-01-17T03:59:30.755Z,98229.81
2023-01-17T04:01:57.536Z,98250.19
2023-01-17T04:04:24.574Z,98263.63
2023-01-17T04:06:51.263Z,98247.34
2023-01-17T04:09:17.983Z,98250.47
2023-01-17T04:11:44.656Z,98182.03
2023-01-17T04:14:11.581Z,98267.81
2023-01-17T04:16:38.599Z,98249.34
2023-01-17T04:19:05.425Z,98260.78
2023-01-17T04:21:32.214Z,98235.06
2023-01-17T04:23:58.924Z,98272.69
2023-01-17T04:26:25.573Z,98243.25
2023-01-17T04:28:52.377Z,98274.25
2023-01-17T04:31:19.125Z,98269.91
2023-01-17T04:33:45.828Z,98290.56
2023-01-17T04:36:12.575Z,98291.81
2023-01-17T04:38:39.264Z,98286.06
2023-01-17T04:41:05.980Z,98276.94
2023-01-17T04:43:32.916Z,98287.31
2023-01-17T04:45:59.791Z,98273.19
2023-01-17T04:48:27.416Z,98288.28
2023-01-17T04:51:05.256Z,98270.09
2023-01-17T04:53:32.167Z,98283.41
2023-01-17T04:55:58.969Z,98294.69
2023-01-17T04:58:26.375Z,98318.22
2023-01-17T05:00:53.292Z,98310.16
2023-01-17T05:03:21.600Z,98319.66
2023-01-17T05:05:49.007Z,98313.88
2023-01-17T05:08:15.907Z,98292.09
2023-01-17T05:10:42.510Z,98309.13
2023-01-17T05:13:09.333Z,98314.66
2023-01-17T05:15:36.594Z,98318.88
2023-01-17T05:18:07.255Z,98298.75
2023-01-17T05:20:35.719Z,98319.09
2023-01-17T05:23:02.484Z,98321.59
2023-01-17T05:25:31.581Z,98342.47
2023-01-17T05:28:00.383Z,98338.63
2023-01-17T05:30:31.528Z,98313.91
2023-01-17T05:32:59.501Z,98347.72
2023-01-17T05:35:32.802Z,98347.72
2023-01-17T05:37:59.604Z,98358.31
2023-01-17T05:40:29.092Z,98351.56
2023-01-17T05:42:57.952Z,98350.50
2023-01-17T05:45:26.781Z,98361.22
2023-01-17T05:47:55.024Z,98367.41
2023-01-17T05:50:32.319Z,98365.91
2023-01-17T05:53:15.966Z,98361.81
2023-01-17T05:55:42.999Z,98336.13
2023-01-17T05:58:18.646Z,98380.50
2023-01-17T06:00:46.029Z,98377.19
2023-01-17T06:03:13.067Z,98349.72
2023-01-17T06:05:40.484Z,98379.69
2023-01-17T06:08:08.061Z,98384.66
2023-01-17T06:10:35.045Z,98375.31
2023-01-17T06:13:07.342Z,98393.72
2023-01-17T06:15:37.229Z,98396.75
2023-01-17T06:18:15.056Z,98407.19
2023-01-17T06:20:42.273Z,98410.22
2023-01-17T06:23:12.094Z,98417.63
2023-01-17T06:25:39.719Z,98422.19
2023-01-17T06:28:10.878Z,98431.00
2023-01-17T06:30:38.039Z,98420.81
2023-01-17T06:33:05.704Z,98398.13
2023-01-17T06:35:32.761Z,98427.25
2023-01-17T06:38:00.588Z,98443.91
2023-01-17T06:40:29.282Z,98396.06
2023-01-17T06:43:03.772Z,98441.56
2023-01-17T06:45:32.594Z,98434.53
2023-01-17T06:48:01.111Z,98438.78
2023-01-17T06:50:28.022Z,98397.00
2023-01-17T06:53:00.190Z,98431.78
2023-01-17T06:55:29.010Z,98430.00
2023-01-17T06:57:57.300Z,98462.16
2023-01-17T07:00:24.331Z,98446.34
2023-01-17T07:02:51.961Z,98428.88
2023-01-17T07:05:19.717Z,98456.53
2023-01-17T07:07:46.970Z,98463.81
2023-01-17T07:10:15.060Z,98466.28
2023-01-17T07:12:42.097Z,98455.00
2023-01-17T07:15:09.594Z,98459.41
2023-01-17T07:17:36.395Z,98434.38
2023-01-17T07:20:03.432Z,98479.47
2023-01-17T07:22:30.115Z,98466.09
2023-01-17T07:24:58.889Z,98468.72
2023-01-17T07:27:27.845Z,98478.06
2023-01-17T07:29:54.612Z,98488.38
2023-01-17T07:32:21.753Z,98462.66
2023-01-17T07:34:48.707Z,98474.75
2023-01-17T07:37:15.631Z,98459.19
2023-01-17T07:39:42.881Z,98487.97
2023-01-17T07:42:09.674Z,98466.19
2023-01-17T07:44:36.411Z,98477.63
2023-01-17T07:47:04.477Z,98463.44
2023-01-17T07:49:31.407Z,98484.91
2023-01-17T07:51:58.090Z,98459.88
2023-01-17T07:54:24.938Z,98484.63
2023-01-17T07:56:51.699Z,98460.44
2023-01-17T07:59:18.541Z,98484.66
2023-01-17T08:01:45.391Z,98464.28
2023-01-17T08:04:12.282Z,98475.00
2023-01-17T08:06:42.992Z,98504.72
2023-01-17T08:09:10.012Z,98501.13
2023-01-17T08:11:37.180Z,98507.19
2023-01-17T08:14:03.935Z,98486.56
2023-01-17T08:16:30.837Z,98503.06
2023-01-17T08:18:57.714Z,98505.94
2023-01-17T08:21:24.551Z,98530.84
2023-01-17T08:23:52.437Z,98535.53
2023-01-17T08:26:23.921Z,98540.63
2023-01-17T08:29:00.988Z,98489.75
2023-01-17T08:31:30.100Z,98508.47
2023-01-17T08:33:57.621Z,98506.09
2023-01-17T08:36:28.739Z,98540.53
2023-01-17T08:38:55.691Z,98517.94
2023-01-17T08:41:23.644Z,98548.50
2023-01-17T08:43:51.841Z,98547.56
2023-01-17T08:46:19.028Z,98549.72
2023-01-17T08:48:46.453Z,98522.91
2023-01-17T08:51:13.820Z,98524.28
2023-01-17T08:53:40.829Z,98532.69
2023-01-17T08:56:07.625Z,98543.28
2023-01-17T08:58:35.979Z,98553.19
2023-01-17T09:01:04.008Z,98522.25
2023-01-17T09:03:32.252Z,98521.28
2023-01-17T09:06:07.549Z,98547.00
2023-01-17T09:08:35.626Z,98557.59
2023-01-17T09:11:16.192Z,98538.47
2023-01-17T09:13:44.142Z,98557.59
2023-01-17T09:16:10.949Z,98559.38
2023-01-17T09:18:37.903Z,98562.28
2023-01-17T09:21:12.981Z,98548.25
2023-01-17T09:23:39.951Z,98529.28
2023-01-17T09:26:06.871Z,98573.28
2023-01-17T09:28:40.976Z,98551.84
2023-01-17T09:31:08.952Z,98501.75
2023-01-17T09:33:37.416Z,98584.03
2023-01-17T09:36:05.874Z,98578.66
2023-01-17T09:38:33.060Z,98578.81
2023-01-17T09:41:02.081Z,98586.50
2023-01-17T09:43:49.047Z,98516.59
2023-01-17T09:46:26.787Z,98587.69
2023-01-17T09:49:13.170Z,98597.72
2023-01-17T09:51:40.209Z,98587.53
2023-01-17T09:54:22.884Z,98576.84
2023-01-17T09:57:05.028Z,98578.22
2023-01-17T10:00:02.615Z,98598.97
2023-01-17T10:03:03.396Z,98603.13
2023-01-17T10:05:58.071Z,98613.72
2023-01-17T10:08:30.959Z,98619.75
2023-01-17T10:11:14.016Z,98603.34
2023-01-17T10:13:54.837Z,98618.53
2023-01-17T10:16:58.160Z,98609.81
2023-01-17T10:19:46.089Z,98622.31
2023-01-17T10:22:15.864Z,98623.25
2023-01-17T10:25:07.168Z,98621.41
2023-01-17T10:27:35.492Z,98624.41
2023-01-17T10:30:12.034Z,98622.38
2023-01-17T10:32:46.644Z,98637.41
2023-01-17T10:35:29.433Z,98639.34
2023-01-17T10:37:58.698Z,98618.72
2023-01-17T10:40:45.373Z,98610.91
2023-01-17T10:43:56.233Z,98623.81
2023-01-17T10:46:28.702Z,98631.81
2023-01-17T10:48:56.605Z,98593.97
2023-01-17T10:51:50.869Z,98634.56
2023-01-17T10:54:29.293Z,98616.53
2023-01-17T10:56:56.252Z,98608.97
2023-01-17T10:59:30.778Z,98616.25
2023-01-17T11:02:07.260Z,98585.88
2023-01-17T11:04:37.671Z,98612.66
2023-01-17T11:07:16.550Z,98612.38
2023-01-17T11:09:45.773Z,98606.13
2023-01-17T11:12:28.879Z,98546.25
2023-01-17T11:15:03.502Z,98608.75
2023-01-17T11:17:31.370Z,98607.78
2023-01-17T11:20:24.026Z,98585.38
2023-01-17T11:23:15.082Z,98593.63
2023-01-17T11:25:53.060Z,98602.13
2023-01-17T11:28:30.623Z,98579.31
2023-01-17T11:31:07.661Z,98565.03
2023-01-17T11:33:45.177Z,98605.69
2023-01-17T11:36:29.093Z,98602.75
2023-01-17T11:39:21.527Z,98605.09
2023-01-17T11:41:48.840Z,98563.81
2023-01-17T11:44:33.413Z,98592.63
2023-01-17T11:47:12.335Z,98592.34
2023-01-17T11:49:50.176Z,98591.09
2023-01-17T11:52:32.390Z,98585.56
2023-01-17T11:54:59.403Z,98576.03
2023-01-17T11:57:34.230Z,98589.53
2023-01-17T12:00:24.377Z,98588.41
2023-01-17T12:03:00.186Z,98586.47
2023-01-17T12:05:32.712Z,98581.75
2023-01-17T12:08:35.962Z,98572.59
2023-01-17T12:11:23.503Z,98565.50
2023-01-17T12:14:25.975Z,98564.06
2023-01-17T12:17:02.717Z,98581.38
2023-01-17T12:19:50.475Z,98578.28
2023-01-17T12:22:36.915Z,98558.38
2023-01-17T12:25:20.565Z,98569.16
2023-01-17T12:28:11.545Z,98525.47
2023-01-17T12:30:56.906Z,98579.34
2023-01-17T12:34:08.289Z,98564.50
2023-01-17T12:36:52.303Z,98552.38
2023-01-17T12:39:26.223Z,98568.25
2023-01-17T12:41:57.075Z,98576.09
2023-01-17T12:44:37.969Z,98579.97
2023-01-17T12:47:05.937Z,98572.16
2023-01-17T12:49:52.059Z,98579.53
2023-01-17T12:52:34.418Z,98560.50
2023-01-17T12:55:12.168Z,98576.06
2023-01-17T12:57:44.139Z,98578.59
2023-01-17T13:00:11.141Z,98582.88
2023-01-17T13:02:47.872Z,98590.50
2023-01-17T13:05:26.062Z,98582.50
2023-01-17T13:08:14.113Z,98581.19
2023-01-17T13:10:48.254Z,98589.75
2023-01-17T13:13:24.283Z,98588.91
2023-01-17T13:15:55.418Z,98589.75
2023-01-17T13:18:26.101Z,98598.44
2023-01-17T13:21:11.677Z,98592.69
2023-01-17T13:23:53.544Z,98577.25
2023-01-17T13:26:29.956Z,98591.66
2023-01-17T13:29:21.933Z,98598.72
2023-01-17T13:31:58.851Z,98594.09
2023-01-17T13:34:28.257Z,98603.91
2023-01-17T13:37:04.663Z,98603.38
2023-01-17T13:39:49.845Z,98607.25
2023-01-17T13:42:40.564Z,98605.50
2023-01-17T13:45:18.570Z,98609.19
2023-01-17T13:47:45.381Z,98587.69
2023-01-17T13:50:37.057Z,98613.19
2023-01-17T13:53:34.604Z,98611.84
2023-01-17T13:56:19.392Z,98621.97
2023-01-17T13:58:50.254Z,98621.47
2023-01-17T14:01:22.928Z,98622.72
2023-01-17T14:03:50.017Z,98619.75
2023-01-17T14:06:38.040Z,98626.94
2023-01-17T14:09:07.745Z,98634.94
2023-01-17T14:11:51.074Z,98636.22
2023-01-17T14:14:40.222Z,98628.38
2023-01-17T14:17:16.260Z,98635.56
2023-01-17T14:19:54.104Z,98600.72
2023-01-17T14:22:21.255Z,98637.28
2023-01-17T14:25:12.213Z,98637.72
2023-01-17T14:27:49.781Z,98644.25
2023-01-17T14:30:26.865Z,98626.09
2023-01-17T14:33:01.245Z,98641.84
2023-01-17T14:35:37.010Z,98644.75
2023-01-17T14:38:15.468Z,98646.31
2023-01-17T14:41:08.693Z,98611.66
2023-01-17T14:43:40.974Z,98650.91
2023-01-17T14:46:16.194Z,98651.47
2023-01-17T14:48:43.056Z,98645.31
2023-01-17T14:51:18.686Z,98664.06
2023-01-17T14:54:08.119Z,98656.91
2023-01-17T14:56:34.910Z,98661.09
2023-01-17T14:59:22.174Z,98648.16
2023-01-17T15:02:06.525Z,98642.81
2023-01-17T15:04:39.610Z,98651.38
2023-01-17T15:07:07.748Z,98663.88
2023-01-17T15:09:38.022Z,98650.69
2023-01-17T15:12:08.360Z,98684.38
2023-01-17T15:14:39.551Z,98677.66
2023-01-17T15:17:26.261Z,98610.22
2023-01-17T15:19:57.718Z,98642.53
2023-01-17T15:22:26.056Z,98686.72
2023-01-17T15:24:54.162Z,98671.72
2023-01-17T15:27:21.614Z,98687.31
2023-01-17T15:29:48.602Z,98668.31
2023-01-17T15:32:23.916Z,98694.09
2023-01-17T15:34:51.685Z,98627.66
2023-01-17T15:37:33.268Z,98696.22
2023-01-17T15:40:12.296Z,98690.56
2023-01-17T15:42:42.735Z,98684.38
2023-01-17T15:45:17.028Z,98692.69
2023-01-17T15:47:44.023Z,98677.13
2023-01-17T15:50:19.930Z,98690.50
2023-01-17T15:52:51.829Z,98660.50
2023-01-17T15:55:39.003Z,98683.94
2023-01-17T15:58:23.616Z,98687.50
2023-01-17T16:00:50.889Z,98686.28
2023-01-17T16:03:31.391Z,98671.56
2023-01-17T16:06:00.545Z,98654.91
2023-01-17T16:08:38.576Z,98682.97
2023-01-17T16:11:06.956Z,98690.28
2023-01-17T16:13:37.990Z,98657.53
2023-01-17T16:16:23.277Z,98700.50
2023-01-17T16:19:03.255Z,98690.84
2023-01-17T16:21:31.448Z,98693.06
2023-01-17T16:23:59.782Z,98671.56
2023-01-17T16:26:29.375Z,98682.00
2023-01-17T16:28:56.558Z,98675.41
2023-01-17T16:31:23.657Z,98693.03
2023-01-17T16:33:50.840Z,98706.81
2023-01-17T16:36:17.932Z,98709.41
2023-01-17T16:38:45.887Z,98709.84
2023-01-17T16:41:13.014Z,98700.06
2023-01-17T16:43:39.962Z,98661.59
2023-01-17T16:46:07.581Z,98699.63
2023-01-17T16:48:34.371Z,98663.25
2023-01-17T16:51:05.911Z,98655.53
2023-01-17T16:53:32.762Z,98680.84
2023-01-17T16:56:07.999Z,98698.34
2023-01-17T16:58:34.755Z,98678.91
2023-01-17T17:01:01.595Z,98646.25
2023-01-17T17:03:28.390Z,98689.09
2023-01-17T17:06:00.066Z,98715.94
2023-01-17T17:08:28.993Z,98731.78
2023-01-17T17:11:06.095Z,98731.19
2023-01-17T17:13:35.807Z,98727.22
2023-01-17T17:16:03.194Z,98705.84
2023-01-17T17:18:30.023Z,98708.84
2023-01-17T17:21:02.047Z,98724.56
2023-01-17T17:23:28.772Z,98745.75
2023-01-17T17:25:56.593Z,98669.69
2023-01-17T17:28:23.582Z,98751.53
2023-01-17T17:30:50.357Z,98751.34
2023-01-17T17:33:17.167Z,98758.94
2023-01-17T17:35:44.019Z,98717.81
2023-01-17T17:38:11.007Z,98745.25
2023-01-17T17:40:37.850Z,98745.94
2023-01-17T17:43:04.602Z,98737.22
2023-01-17T17:45:31.295Z,98755.44
2023-01-17T17:47:58.046Z,98711.97
2023-01-17T17:50:29.635Z,98743.69
2023-01-17T17:52:56.376Z,98755.25
2023-01-17T17:55:23.193Z,98754.56
2023-01-17T17:57:49.933Z,98760.19
2023-01-17T18:00:17.030Z,98756.31
2023-01-17T18:02:43.855Z,98754.66
2023-01-17T18:05:10.817Z,98682.38
2023-01-17T18:07:37.543Z,98745.50
2023-01-17T18:10:04.821Z,98758.84
2023-01-17T18:12:31.561Z,98765.34
2023-01-17T18:14:58.393Z,98776.31
2023-01-17T18:17:25.219Z,98779.88
2023-01-17T18:19:52.684Z,98766.38
2023-01-17T18:22:19.349Z,98761.66
2023-01-17T18:24:46.466Z,98784.25
2023-01-17T18:27:13.228Z,98755.03
2023-01-17T18:29:40.039Z,98785.34
2023-01-17T18:32:06.982Z,98781.44
2023-01-17T18:34:35.726Z,98769.03
2023-01-17T18:37:02.478Z,98710.69
2023-01-17T18:39:30.152Z,98797.00
2023-01-17T18:41:57.541Z,98776.44
2023-01-17T18:44:24.765Z,98797.13
2023-01-17T18:46:53.791Z,98754.09
2023-01-17T18:49:20.861Z,98794.63
2023-01-17T18:51:51.117Z,98803.28
2023-01-17T18:54:18.744Z,98805.34
2023-01-17T18:56:45.480Z,98796.09
2023-01-17T18:59:13.862Z,98800.50
2023-01-17T19:01:44.751Z,98807.50
2023-01-17T19:04:13.415Z,98809.28
2023-01-17T19:06:46.025Z,98788.84
2023-01-17T19:09:14.389Z,98812.97
2023-01-17T19:11:43.142Z,98806.34
2023-01-17T19:14:11.420Z,98828.38
2023-01-17T19:16:40.989Z,98815.38
2023-01-17T19:19:14.059Z,98790.75
2023-01-17T19:21:41.075Z,98724.28
2023-01-17T19:24:07.869Z,98815.63
2023-01-17T19:26:34.678Z,98772.13
2023-01-17T19:29:03.807Z,98840.97
2023-01-17T19:31:32.008Z,98836.25
2023-01-17T19:34:00.161Z,98843.38
2023-01-17T19:36:31.316Z,98853.34
2023-01-17T19:39:06.272Z,98856.06
2023-01-17T19:41:36.489Z,98852.75
2023-01-17T19:44:08.227Z,98862.47
2023-01-17T19:46:35.804Z,98852.66
2023-01-17T19:49:08.567Z,98847.69
2023-01-17T19:51:36.283Z,98825.91
2023-01-17T19:54:04.228Z,98855.13
2023-01-17T19:56:31.621Z,98845.56
2023-01-17T19:59:01.691Z,98861.69
2023-01-17T20:01:32.200Z,98849.81
2023-01-17T20:04:00.714Z,98854.81
2023-01-17T20:06:30.176Z,98860.03
2023-01-17T20:08:57.772Z,98868.09
2023-01-17T20:11:25.605Z,98815.53
2023-01-17T20:13:57.124Z,98854.38
2023-01-17T20:16:25.879Z,98852.72
2023-01-17T20:18:52.991Z,98835.69
2023-01-17T20:21:24.708Z,98890.16
2023-01-17T20:23:52.890Z,98857.03
2023-01-17T20:26:23.485Z,98817.25
2023-01-17T20:28:51.519Z,98887.22
2023-01-17T20:31:21.633Z,98879.06
2023-01-17T20:33:52.709Z,98860.09
2023-01-17T20:36:22.286Z,98897.78
2023-01-17T20:38:49.682Z,98857.97
2023-01-17T20:41:32.974Z,98901.31
2023-01-17T20:44:01.898Z,98898.38
2023-01-17T20:46:33.393Z,98895.78
2023-01-17T20:49:01.251Z,98885.94
2023-01-17T20:51:29.425Z,98877.19
2023-01-17T20:53:59.351Z,98893.28
2023-01-17T20:56:27.212Z,98891.53
2023-01-17T20:58:54.882Z,98906.69
2023-01-17T21:01:23.358Z,98869.16
2023-01-17T21:03:53.907Z,98909.63
2023-01-17T21:06:21.766Z,98904.91
2023-01-17T21:08:49.204Z,98793.34
2023-01-17T21:11:19.971Z,98915.81
2023-01-17T21:13:48.857Z,98915.81
2023-01-17T21:16:20.624Z,98922.09
2023-01-17T21:18:48.874Z,98918.19
2023-01-17T21:21:18.405Z,98897.47
2023-01-17T21:23:46.180Z,98924.84
2023-01-17T21:26:14.636Z,98854.94
2023-01-17T21:28:43.983Z,98912.03
2023-01-17T21:31:35.064Z,98916.41
2023-01-17T21:34:09.859Z,98908.47
2023-01-17T21:36:39.195Z,98923.41
2023-01-17T21:39:15.974Z,98913.69
2023-01-17T21:41:45.793Z,98915.81
2023-01-17T21:44:21.094Z,98932.16
2023-01-17T21:46:49.178Z,98918.06
2023-01-17T21:49:17.217Z,98894.00
2023-01-17T21:51:53.121Z,98907.88
2023-01-17T21:54:20.447Z,98929.44
2023-01-17T21:57:05.571Z,98912.28
2023-01-17T21:59:32.417Z,98900.56
2023-01-17T22:01:59.153Z,98872.44
2023-01-17T22:04:25.848Z,98902.19
2023-01-17T22:06:52.600Z,98922.09
2023-01-17T22:09:19.236Z,98856.00
2023-01-17T22:11:46.006Z,98927.44
2023-01-17T22:14:12.695Z,98907.75
2023-01-17T22:16:39.561Z,98914.16
2023-01-17T22:19:06.502Z,98926.25
2023-01-17T22:21:33.212Z,98908.47
2023-01-17T22:24:00.093Z,98928.63
2023-01-17T22:26:31.684Z,98929.78
2023-01-17T22:29:02.368Z,98925.16
2023-01-17T22:31:29.222Z,98933.59
2023-01-17T22:34:02.019Z,98917.00
2023-01-17T22:36:30.512Z,98931.00
2023-01-17T22:38:57.516Z,98943.78
2023-01-17T22:41:29.745Z,98944.84
2023-01-17T22:43:58.752Z,98933.25
2023-01-17T22:46:30.601Z,98944.97
2023-01-17T22:48:57.899Z,98945.91
2023-01-17T22:51:26.627Z,98930.50
2023-01-17T22:53:55.824Z,98927.63
2023-01-17T22:56:28.330Z,98924.56
2023-01-17T22:58:55.283Z,98912.72
2023-01-17T23:01:24.858Z,98941.75
2023-01-17T23:04:00.222Z,98942.81
2023-01-17T23:06:28.689Z,98941.38
2023-01-17T23:08:57.399Z,98946.47
2023-01-17T23:11:46.177Z,98925.50
2023-01-17T23:14:14.367Z,98932.38
2023-01-17T23:17:07.353Z,98915.06
2023-01-17T23:19:39.717Z,98941.63
2023-01-17T23:22:21.036Z,98925.25
2023-01-17T23:25:08.212Z,98942.69
2023-01-17T23:28:01.009Z,98940.41
2023-01-17T23:30:38.594Z,98911.22
2023-01-17T23:33:08.062Z,98951.06
2023-01-17T23:35:41.485Z,98921.44
2023-01-17T23:38:30.736Z,98957.72
2023-01-17T23:41:33.851Z,98933.06
2023-01-17T23:44:00.605Z,98943.47
2023-01-17T23:46:28.630Z,98961.81
2023-01-17T23:48:55.462Z,98947.47
2023-01-17T23:51:22.211Z,98947.59
2023-01-17T23:53:49.103Z,98894.56
2023-01-17T23:56:21.093Z,98942.72
2023-01-17T23:58:47.965Z,98966.19
